Terminal Aerodrome Forecast
Issued by NWS

Current Version | Previous Version | Text Only | Print | Product List | Glossary On
Versions: 1 2 3 4 5 6 7 8 9 10 11 12 13 14 15 16 17 18 19 20 21 22 23 24 25 26 27 28 29 30 31 32 33 34 35 36 37 38 39 40 41 42 43 44 45 46 47 48 49 50
000
FTUS43 KDMX 221805 AAA
TAFFOD
TAF AMD
KFOD 221805Z 2218/2318 10010KT 5SM -SN OVC015
     FM222000 11009KT 2SM -FZRASN BR OVC011
     FM222300 11009KT 2SM -FZRASN BR OVC007
     FM230300 14007KT 1 1/2SM -FZRASN BR OVC005
     FM230700 19004KT 3SM BR OVC003
     FM231000 25005KT P6SM BKN005
     FM231400 28006KT P6SM SCT025=

USA.gov is the U.S. government's official web portal to all federal, state and local government web resources and services.